createdAt,value
2018-09-12T07:12:51.634Z,23.68
2018-09-12T07:15:20.789Z,23.63
2018-09-12T07:17:49.849Z,23.72
2018-09-12T07:20:19.220Z,23.74
2018-09-12T07:22:48.240Z,23.86
2018-09-12T07:25:17.423Z,23.90
2018-09-12T07:27:46.706Z,23.96
2018-09-12T07:30:15.899Z,24.06
2018-09-12T07:32:44.926Z,24.09
2018-09-12T07:35:14.277Z,23.91
2018-09-12T07:37:43.275Z,24.07
2018-09-12T07:40:12.446Z,24.09
2018-09-12T07:42:42.019Z,24.11
2018-09-12T07:45:11.061Z,24.15
2018-09-12T07:47:40.337Z,24.13
2018-09-12T07:50:09.793Z,24.38
2018-09-12T07:52:38.925Z,24.48
2018-09-12T07:55:08.092Z,24.62
2018-09-12T07:57:37.570Z,24.56
2018-09-12T08:00:07.572Z,24.62
2018-09-12T08:02:36.662Z,24.68
2018-09-12T08:05:06.284Z,24.58
2018-09-12T08:07:35.404Z,24.87
2018-09-12T08:10:04.532Z,25.01
2018-09-12T08:12:33.671Z,24.97
2018-09-12T08:15:02.811Z,25.13
2018-09-12T08:17:31.988Z,25.45
2018-09-12T08:20:01.080Z,25.49
2018-09-12T08:22:30.219Z,25.30
2018-09-12T08:24:59.356Z,25.41
2018-09-12T08:27:28.737Z,25.70
2018-09-12T08:29:57.933Z,25.56
2018-09-12T08:32:26.944Z,25.45
2018-09-12T08:34:56.358Z,25.57
2018-09-12T08:37:25.612Z,25.76
2018-09-12T08:39:54.704Z,25.89
2018-09-12T08:42:24.209Z,25.99
2018-09-12T08:44:53.257Z,25.89
2018-09-12T08:47:22.563Z,25.95
2018-09-12T08:49:51.994Z,26.01
2018-09-12T08:52:21.192Z,25.97
2018-09-12T08:54:50.383Z,25.97
2018-09-12T08:57:19.906Z,26.37
2018-09-12T08:59:48.897Z,26.28
2018-09-12T09:02:17.941Z,26.37
2018-09-12T09:04:47.517Z,26.44
2018-09-12T09:07:18.213Z,26.61
2018-09-12T09:09:47.408Z,26.90
2018-09-12T09:12:16.878Z,27.05
2018-09-12T09:14:45.962Z,27.39
2018-09-12T09:17:15.040Z,27.59
2018-09-12T09:19:44.481Z,27.28
2018-09-12T09:22:13.630Z,27.67
2018-09-12T09:24:42.697Z,27.53
2018-09-12T09:27:12.192Z,28.04
2018-09-12T09:29:41.391Z,28.44
2018-09-12T09:32:10.507Z,28.81
2018-09-12T09:34:39.908Z,29.08
2018-09-12T09:37:08.955Z,29.11
2018-09-12T09:39:38.031Z,28.90
2018-09-12T09:42:07.567Z,28.91
2018-09-12T09:44:36.637Z,28.63
2018-09-12T09:47:05.769Z,29.09
2018-09-12T09:49:35.166Z,29.36
2018-09-12T09:52:04.168Z,29.45
2018-09-12T09:54:33.386Z,29.02
2018-09-12T09:57:02.497Z,29.36
2018-09-12T09:59:31.475Z,29.40
2018-09-12T10:02:19.666Z,29.49
2018-09-12T10:04:53.758Z,29.69
2018-09-12T10:07:28.239Z,29.47
2018-09-12T10:10:02.454Z,29.44
2018-09-12T10:12:31.878Z,29.78
2018-09-12T10:15:01.688Z,30.06
2018-09-12T10:17:30.918Z,29.92
2018-09-12T10:20:00.613Z,29.89
2018-09-12T10:22:30.121Z,29.79
2018-09-12T10:24:59.361Z,29.77
2018-09-12T10:27:28.772Z,29.99
2018-09-12T10:29:57.771Z,29.97
2018-09-12T10:32:26.905Z,30.23
2018-09-12T10:34:55.998Z,30.39
2018-09-12T10:37:25.199Z,30.98
2018-09-12T10:39:54.339Z,31.08
2018-09-12T10:42:23.762Z,31.66
2018-09-12T10:44:52.863Z,30.44
2018-09-12T10:47:21.930Z,30.19
2018-09-12T10:49:51.526Z,30.69
2018-09-12T10:52:20.623Z,30.22
2018-09-12T10:54:49.723Z,29.91
2018-09-12T10:57:19.177Z,30.02
2018-09-12T10:59:48.300Z,30.21
2018-09-12T11:02:18.044Z,30.45
2018-09-12T11:04:47.939Z,30.59
2018-09-12T11:07:17.693Z,30.69
2018-09-12T11:09:47.743Z,30.61
2018-09-12T11:12:17.251Z,30.97
2018-09-12T11:14:46.274Z,31.00
2018-09-12T11:17:15.382Z,31.06
2018-09-12T11:19:44.752Z,31.10
2018-09-12T11:22:13.828Z,31.30
2018-09-12T11:24:43.557Z,30.95
2018-09-12T11:27:12.988Z,30.89
2018-09-12T11:29:42.133Z,30.70
2018-09-12T11:32:11.278Z,31.20
2018-09-12T11:34:40.621Z,31.02
2018-09-12T11:37:09.983Z,30.90
2018-09-12T11:39:38.948Z,31.23
2018-09-12T11:42:08.124Z,30.94
2018-09-12T11:44:37.321Z,31.03
2018-09-12T11:47:06.499Z,30.89
2018-09-12T11:49:35.913Z,30.48
2018-09-12T11:52:04.947Z,29.31
2018-09-12T11:54:34.002Z,29.52
2018-09-12T11:57:03.561Z,29.97
2018-09-12T11:59:32.661Z,29.81
2018-09-12T12:02:01.827Z,29.70
2018-09-12T12:04:31.323Z,29.16
2018-09-12T12:07:00.508Z,28.59
2018-09-12T12:09:29.558Z,28.37
2018-09-12T12:11:58.665Z,27.39
2018-09-12T12:14:27.831Z,27.44
2018-09-12T12:16:56.999Z,27.42
2018-09-12T12:19:26.127Z,26.15
2018-09-12T12:21:55.324Z,26.24
2018-09-12T12:24:24.526Z,25.90
2018-09-12T12:26:53.657Z,25.63
2018-09-12T12:29:22.791Z,25.60
2018-09-12T12:31:51.874Z,25.69
2018-09-12T12:34:21.245Z,25.79
2018-09-12T12:36:50.335Z,26.17
2018-09-12T12:39:19.470Z,26.25
2018-09-12T12:41:49.115Z,26.30
2018-09-12T12:44:18.278Z,26.08
2018-09-12T12:46:47.313Z,25.90
2018-09-12T12:49:16.503Z,25.53
2018-09-12T12:51:45.639Z,25.42
2018-09-12T12:54:14.737Z,25.27
2018-09-12T12:56:43.815Z,25.11
2018-09-12T12:59:12.985Z,25.03
2018-09-12T13:01:42.462Z,24.91
2018-09-12T13:04:12.441Z,24.63
2018-09-12T13:06:41.529Z,24.47
2018-09-12T13:09:10.592Z,24.42
2018-09-12T13:11:40.091Z,24.22
2018-09-12T13:14:10.080Z,24.17
2018-09-12T13:16:39.352Z,23.97
2018-09-12T13:19:08.507Z,23.93
2018-09-12T13:21:37.699Z,23.98
2018-09-12T13:24:06.769Z,23.96
2018-09-12T13:26:36.112Z,23.95
2018-09-12T13:29:05.524Z,24.13
2018-09-12T13:31:34.670Z,24.34
2018-09-12T13:34:03.789Z,24.40
2018-09-12T13:36:32.847Z,24.40
2018-09-12T13:39:02.023Z,24.30
2018-09-12T13:41:31.444Z,24.02
2018-09-12T13:44:00.590Z,23.86
2018-09-12T13:46:29.640Z,23.76
2018-09-12T13:48:58.750Z,23.76
2018-09-12T13:51:28.210Z,23.80
2018-09-12T13:53:57.345Z,23.81
2018-09-12T13:56:26.388Z,23.76
2018-09-12T13:58:55.444Z,23.85
2018-09-12T14:01:24.551Z,23.93
2018-09-12T14:03:53.757Z,23.86
2018-09-12T14:06:22.910Z,23.85
2018-09-12T14:08:51.901Z,23.91
2018-09-12T14:11:20.909Z,24.06
2018-09-12T14:13:50.014Z,23.99
2018-09-12T14:16:19.014Z,24.40
2018-09-12T14:18:48.028Z,24.49
2018-09-12T14:21:17.127Z,24.53
2018-09-12T14:23:46.371Z,24.61
2018-09-12T14:26:15.420Z,24.74
2018-09-12T14:28:44.533Z,24.81
2018-09-12T14:31:13.531Z,24.74
2018-09-12T14:33:42.638Z,24.90
2018-09-12T14:36:11.780Z,24.98
2018-09-12T14:38:40.856Z,25.23
2018-09-12T14:41:10.243Z,25.26
2018-09-12T14:43:39.240Z,25.37
2018-09-12T14:46:08.336Z,25.42
2018-09-12T14:48:37.533Z,25.29
2018-09-12T14:51:06.672Z,25.35
2018-09-12T14:53:35.525Z,25.16
2018-09-12T14:56:04.565Z,24.98
2018-09-12T14:58:34.321Z,24.94
2018-09-12T15:01:03.228Z,25.10
2018-09-12T15:03:32.121Z,25.02
2018-09-12T15:06:01.722Z,24.86
2018-09-12T15:08:30.692Z,24.71
2018-09-12T15:10:59.799Z,24.86
2018-09-12T15:13:29.043Z,24.84
2018-09-12T15:15:58.101Z,24.83
2018-09-12T15:18:27.111Z,24.66
2018-09-12T15:20:56.057Z,24.82
2018-09-12T15:23:25.034Z,24.87
2018-09-12T15:25:54.116Z,24.87
2018-09-12T15:28:23.009Z,24.98
2018-09-12T15:30:51.976Z,24.81
2018-09-12T15:33:20.929Z,24.80
2018-09-12T15:35:49.910Z,24.61
2018-09-12T15:38:19.200Z,24.44
2018-09-12T15:40:48.328Z,24.66
2018-09-12T15:43:18.445Z,24.61
2018-09-12T15:45:47.710Z,24.63
2018-09-12T15:48:16.585Z,24.76
2018-09-12T15:50:45.963Z,24.77
2018-09-12T15:53:14.876Z,24.74
2018-09-12T15:55:43.790Z,24.83
2018-09-12T15:58:12.873Z,24.91
2018-09-12T16:00:41.765Z,25.00
2018-09-12T16:03:10.748Z,24.99
2018-09-12T16:05:39.726Z,24.77
2018-09-12T16:08:09.143Z,24.68
2018-09-12T16:10:38.123Z,24.45
2018-09-12T16:13:07.514Z,24.40
2018-09-12T16:15:36.650Z,24.35
2018-09-12T16:18:06.001Z,24.27
2018-09-12T16:20:35.283Z,24.41
2018-09-12T16:23:04.290Z,24.42
2018-09-12T16:25:33.560Z,24.52
2018-09-12T16:28:02.792Z,24.48
2018-09-12T16:30:31.651Z,24.46
2018-09-12T16:33:00.582Z,24.50
2018-09-12T16:35:29.563Z,24.33
2018-09-12T16:37:59.022Z,24.46
2018-09-12T16:40:28.015Z,24.41
2018-09-12T16:42:57.270Z,24.39
2018-09-12T16:45:26.180Z,24.22
2018-09-12T16:47:55.173Z,24.19
2018-09-12T16:50:24.576Z,24.40
2018-09-12T16:52:54.094Z,24.55
2018-09-12T16:55:23.072Z,24.76
2018-09-12T16:57:52.456Z,24.84
2018-09-12T17:00:21.481Z,24.63
2018-09-12T17:02:50.527Z,24.41
2018-09-12T17:05:19.482Z,24.51
2018-09-12T17:07:49.186Z,24.68
2018-09-12T17:10:18.115Z,24.82
2018-09-12T17:12:47.343Z,24.87
2018-09-12T17:15:16.239Z,24.85
2018-09-12T17:17:45.183Z,24.44
2018-09-12T17:20:14.136Z,24.47
2018-09-12T17:22:43.019Z,24.30
2018-09-12T17:25:11.927Z,23.96
2018-09-12T17:27:41.232Z,24.06
2018-09-12T17:30:10.133Z,24.32
2018-09-12T17:32:39.389Z,24.35
2018-09-12T17:35:08.775Z,24.27
2018-09-12T17:37:37.805Z,24.23
2018-09-12T17:40:06.848Z,24.14
2018-09-12T17:42:36.182Z,24.21
2018-09-12T17:45:05.888Z,24.32
2018-09-12T17:47:34.831Z,24.29
2018-09-12T17:50:04.085Z,24.39
2018-09-12T17:52:33.273Z,24.52
2018-09-12T17:55:02.567Z,24.66
2018-09-12T17:57:31.886Z,24.71
2018-09-12T18:00:01.826Z,24.84
2018-09-12T18:02:30.730Z,24.74
2018-09-12T18:04:59.643Z,24.72
2018-09-12T18:07:28.900Z,24.64
2018-09-12T18:09:57.891Z,24.55
2018-09-12T18:12:27.212Z,24.65
2018-09-12T18:14:56.140Z,24.70
2018-09-12T18:17:25.108Z,24.65
2018-09-12T18:19:54.299Z,24.57
2018-09-12T18:22:23.302Z,24.52
2018-09-12T18:24:52.430Z,24.38
2018-09-12T18:27:21.215Z,24.45
2018-09-12T18:29:50.246Z,24.57
2018-09-12T18:32:19.261Z,24.75
2018-09-12T18:34:48.276Z,24.76
2018-09-12T18:37:17.183Z,24.86
2018-09-12T18:39:46.404Z,24.92
2018-09-12T18:42:15.356Z,24.72
2018-09-12T18:44:44.312Z,25.06
2018-09-12T18:47:13.297Z,24.59
2018-09-12T18:49:42.164Z,24.50
2018-09-12T18:52:11.104Z,24.45
2018-09-12T18:54:39.924Z,24.29
2018-09-12T18:57:09.050Z,24.44
2018-09-12T18:59:37.937Z,24.63
2018-09-12T19:02:06.888Z,24.77
2018-09-12T19:04:35.828Z,24.83
2018-09-12T19:07:04.887Z,24.70
2018-09-12T19:09:33.752Z,24.45
2018-09-12T19:12:03.061Z,24.39
2018-09-12T19:14:32.027Z,24.46
2018-09-12T19:17:00.904Z,24.23
2018-09-12T19:19:29.799Z,24.89
2018-09-12T19:21:59.806Z,24.31
2018-09-12T19:24:28.850Z,24.05
2018-09-12T19:26:58.149Z,23.75
2018-09-12T19:29:26.979Z,23.60
2018-09-12T19:31:56.433Z,23.44
2018-09-12T19:34:25.617Z,23.32
2018-09-12T19:36:54.511Z,23.49
2018-09-12T19:39:23.442Z,23.12
2018-09-12T19:41:52.831Z,23.16
2018-09-12T19:44:21.763Z,23.28
2018-09-12T19:46:50.609Z,23.06
2018-09-12T19:49:19.864Z,22.93
2018-09-12T19:51:48.770Z,22.87
2018-09-12T19:54:17.818Z,22.66
2018-09-12T19:56:47.560Z,22.85
2018-09-12T19:59:16.495Z,22.69
2018-09-12T20:01:45.417Z,22.59
2018-09-12T20:04:14.651Z,22.49
2018-09-12T20:06:43.696Z,22.48
2018-09-12T20:09:12.603Z,22.45
2018-09-12T20:11:42.169Z,22.49
2018-09-12T20:14:11.338Z,22.50
2018-09-12T20:16:40.304Z,22.33
2018-09-12T20:19:09.568Z,22.44
2018-09-12T20:21:38.552Z,22.45
2018-09-12T20:24:07.667Z,22.39
2018-09-12T20:26:36.932Z,22.66
2018-09-12T20:29:05.845Z,22.44
2018-09-12T20:31:34.802Z,22.40
2018-09-12T20:34:04.012Z,22.41
2018-09-12T20:36:32.998Z,22.40
2018-09-12T20:39:01.951Z,22.20
2018-09-12T20:41:31.258Z,21.90
2018-09-12T20:44:00.187Z,21.94
2018-09-12T20:46:29.103Z,21.98
2018-09-12T20:48:58.332Z,21.99
2018-09-12T20:51:27.290Z,21.82
2018-09-12T20:53:56.282Z,21.86
2018-09-12T20:56:25.225Z,21.84
2018-09-12T20:58:54.135Z,22.00
2018-09-12T21:01:22.986Z,21.94
2018-09-12T21:03:52.445Z,21.89
2018-09-12T21:06:21.342Z,22.06
2018-09-12T21:08:50.308Z,21.92
2018-09-12T21:11:19.270Z,21.94
2018-09-12T21:13:48.178Z,22.35
2018-09-12T21:16:17.171Z,22.23
2018-09-12T21:18:46.178Z,22.27
2018-09-12T21:21:15.147Z,22.25
2018-09-12T21:23:44.220Z,22.23
2018-09-12T21:26:13.411Z,22.33
2018-09-12T21:28:42.262Z,22.18
2018-09-12T21:31:11.204Z,22.20
2018-09-12T21:33:40.118Z,22.15
2018-09-12T21:36:09.066Z,22.15
2018-09-12T21:38:37.993Z,22.28
2018-09-12T21:41:07.240Z,22.37
2018-09-12T21:43:36.130Z,22.32
2018-09-12T21:46:05.001Z,22.09
2018-09-12T21:48:34.683Z,22.13
2018-09-12T21:51:03.859Z,21.90
2018-09-12T21:53:32.912Z,22.03
2018-09-12T21:56:01.940Z,21.72
2018-09-12T21:58:30.903Z,21.70
2018-09-12T22:01:00.085Z,21.53
2018-09-12T22:03:29.473Z,21.51
2018-09-12T22:05:58.391Z,21.46
2018-09-12T22:08:27.298Z,21.50
2018-09-12T22:10:56.266Z,21.54
2018-09-12T22:13:25.140Z,21.61
2018-09-12T22:15:54.034Z,21.61
2018-09-12T22:18:23.374Z,21.64
2018-09-12T22:20:52.287Z,21.70
2018-09-12T22:23:21.218Z,21.61
2018-09-12T22:25:50.218Z,21.72
2018-09-12T22:28:19.114Z,21.68
2018-09-12T22:30:48.191Z,21.50
2018-09-12T22:33:17.519Z,21.53
2018-09-12T22:35:46.464Z,21.37
2018-09-12T22:38:15.349Z,21.33
2018-09-12T22:40:44.424Z,21.11
2018-09-12T22:43:13.253Z,21.29
2018-09-12T22:45:42.552Z,21.33
2018-09-12T22:48:11.465Z,21.40
2018-09-12T22:50:40.387Z,21.42
2018-09-12T22:53:09.314Z,21.26
2018-09-12T22:55:38.545Z,21.31
2018-09-12T22:58:07.401Z,21.30
2018-09-12T23:00:36.354Z,21.23
2018-09-12T23:03:05.244Z,21.24
2018-09-12T23:05:34.167Z,21.37
2018-09-12T23:08:03.037Z,21.38
2018-09-12T23:10:32.384Z,21.32
2018-09-12T23:13:01.295Z,21.38
2018-09-12T23:15:30.242Z,21.51
2018-09-12T23:17:59.225Z,21.52
2018-09-12T23:20:28.258Z,21.60
2018-09-12T23:22:57.165Z,21.50
2018-09-12T23:25:26.407Z,21.66
2018-09-12T23:27:55.299Z,21.69
2018-09-12T23:30:24.240Z,21.71
2018-09-12T23:32:53.196Z,21.67
2018-09-12T23:35:22.201Z,21.58
2018-09-12T23:37:51.058Z,21.65
2018-09-12T23:40:20.394Z,21.53
2018-09-12T23:42:49.275Z,21.52
2018-09-12T23:45:18.202Z,21.50
2018-09-12T23:47:47.499Z,21.50
2018-09-12T23:50:16.399Z,21.57
2018-09-12T23:52:45.419Z,21.59
2018-09-12T23:55:14.372Z,21.48
2018-09-12T23:57:43.310Z,21.70
